Trà Nóc Airport
VVCT : now visible

Airfield :











YOU CAN JOIN US ON...

 
LOGIN :

Register | Disclaimer

   EN    FR    IT 

 









Legend :    VFR   Marginal VFR   IFR   Intensive IFR   Very Intensive IFR
Visi :
Ceiling :
>= 8 km
>= 3000ft
5 to 8 km
1000 to 3000 ft
1500m to 5 km
500 to 1000 ft
800 to 1500m
200 to 500 ft
< 800m
< 200 ft
Symbols :   Thunderstorms  Fog  Heavy snow  Heavy precipitations  Wind > 20 kt






- Airport Elevation : 9 ft
- IATA code : VCA


VVCT - Trà Nóc

CURRENT METAR :
  • 180600Z 25009KT 9999 FEW015 34/26 Q1007 NOSIG

EXPIRED METARs :
  • 180530Z 24012KT 9999 FEW015 34/26 Q1007 NOSIG
  • 180500Z 28009KT 9999 SCT015 33/28 Q1008 NOSIG
  • 180430Z 27009KT 9999 SCT015 34/28 Q1008 NOSIG
  • 180400Z 27007KT 9999 SCT015 34/28 Q1008 NOSIG
  • 180330Z 29006KT 9999 SCT015 33/28 Q1009 NOSIG
  • 180300Z 27006KT 9999 SCT015 FEW017TCU 32/28 Q1009 NOSIG
  • 180230Z 26007KT 9999 SCT015 FEW017TCU 32/28 Q1009 NOSIG
  • 180200Z 27005KT 9999 SCT015 FEW017TCU 32/29 Q1009 NOSIG
  • 180130Z 26005KT 9999 FEW015 FEW017TCU 31/28 Q1009 NOSIG

TAF TAF VVCT
Valid from the 18 at 06:00 until the 19 at 06:00 UTC


180500Z 1806/1906 25008KT 9999 SCT015 SCT040
TEMPO 1807/1810 5000 TSRA SCT015 FEW017CB BKN040



MET'MAP, your aeronautical weather chart ! - Copyright ORBIFLY December 2007 - Disclaimer

ORBIFLY MET'MAP TEAM :

Programming & Development : Alexandra Zaïnal
Original concept : Baudouin d'Aumeries
Technical & hardware support : Manuel Goepfert
Assistance : Marc-Olivier Méhu




SOURCES & CREDITS :

   NOAA       Earth
Advisory